Time;durP1;ratioP1;P1;durP2;ratioP2;P2;SDS_P1;SDS_P2;PMS_P1;PMS_P2;Temp;Humidity;BMP_temperature;BMP_pressure;BME280_temperature;BME280_humidity;BME280_pressure;Samples;Min_cycle;Max_cycle;Signal;HPM_P1;HPM_P2
2023/10/09 00:00:55;;;;;;;19.17;18.08;;;;;;;;;;4983999;28;20055;-66
2023/10/09 00:03:23;;;;;;;20.60;19.40;;;;;;;;;;4985774;28;20125;-67
2023/10/09 00:05:53;;;;;;;20.88;19.73;;;;;;;;;;5000796;28;20086;-66
2023/10/09 00:08:21;;;;;;;19.60;18.40;;;;;;;;;;5002445;28;20026;-67
2023/10/09 00:10:53;;;;;;;19.08;17.88;;;;;;;;;;5002688;28;20042;-67
2023/10/09 00:13:19;;;;;;;21.20;19.98;;;;;;;;;;5004526;28;20057;-67
2023/10/09 00:15:52;;;;;;;21.98;20.77;;;;;;;;;;4986725;28;20026;-67
2023/10/09 00:18:23;;;;;;;19.15;18.05;;;;;;;;;;5003531;28;20038;-67
2023/10/09 00:20:54;;;;;;;20.90;19.80;;;;;;;;;;4983937;28;20119;-68
2023/10/09 00:23:20;;;;;;;18.83;17.80;;;;;;;;;;5003937;28;20066;-68
2023/10/09 00:28:37;;;;;;;20.80;19.70;;;;;;;;;;5004514;28;20258;-67
2023/10/09 00:31:06;;;;;;;21.42;20.23;;;;;;;;;;5001708;28;20072;-67
2023/10/09 00:33:32;;;;;;;20.02;18.92;;;;;;;;;;5003041;28;20041;-67
2023/10/09 00:36:10;;;;;;;19.27;18.17;;;;;;;;;;4999422;28;20041;-67
2023/10/09 00:38:46;;;;;;;18.65;17.60;;;;;;;;;;4981893;28;20038;-67
2023/10/09 00:41:20;;;;;;;21.77;20.35;;;;;;;;;;5001922;28;20034;-68
2023/10/09 00:43:46;;;;;;;19.55;18.23;;;;;;;;;;4979979;28;20033;-67
2023/10/09 00:48:51;;;;;;;19.77;18.48;;;;;;;;;;5002179;28;20058;-68
2023/10/09 00:51:18;;;;;;;20.88;19.67;;;;;;;;;;5001477;28;20025;-67
2023/10/09 00:53:51;;;;;;;19.55;18.48;;;;;;;;;;5003631;28;20049;-67
2023/10/09 00:56:19;;;;;;;20.08;18.95;;;;;;;;;;4985096;28;20455;-67
2023/10/09 00:58:55;;;;;;;18.15;17.15;;;;;;;;;;5001745;28;20053;-67
2023/10/09 01:01:28;;;;;;;18.73;17.70;;;;;;;;;;5002257;28;20037;-67
2023/10/09 01:03:54;;;;;;;20.45;19.25;;;;;;;;;;5001456;28;20042;-67
2023/10/09 01:06:27;;;;;;;21.45;20.15;;;;;;;;;;5002330;28;20046;-67
2023/10/09 01:09:07;;;;;;;22.33;20.98;;;;;;;;;;5003602;28;20371;-67
2023/10/09 01:11:34;;;;;;;20.65;19.45;;;;;;;;;;5006221;28;20069;-67
2023/10/09 01:16:34;;;;;;;20.17;19.00;;;;;;;;;;5003159;28;20038;-67
2023/10/09 01:19:06;;;;;;;19.48;18.38;;;;;;;;;;5002441;28;20041;-68
2023/10/09 01:21:31;;;;;;;20.45;19.35;;;;;;;;;;5004722;28;20030;-67
2023/10/09 01:24:03;;;;;;;21.17;20.00;;;;;;;;;;5006451;28;20037;-67
2023/10/09 01:26:57;;;;;;;20.60;19.50;;;;;;;;;;5005639;28;20042;-67
2023/10/09 01:29:21;;;;;;;20.17;19.02;;;;;;;;;;5006523;28;20388;-67
2023/10/09 01:32:04;;;;;;;18.95;17.92;;;;;;;;;;5007234;28;20034;-67
2023/10/09 01:34:50;;;;;;;20.40;19.20;;;;;;;;;;5006315;28;20042;-67
2023/10/09 01:37:26;;;;;;;20.25;19.15;;;;;;;;;;5005732;28;20430;-67
2023/10/09 01:39:54;;;;;;;19.92;18.83;;;;;;;;;;5006486;28;20100;-67
2023/10/09 01:42:34;;;;;;;19.67;18.58;;;;;;;;;;5005482;28;20487;-67
2023/10/09 01:45:16;;;;;;;21.70;20.50;;;;;;;;;;4990654;28;20033;-67
2023/10/09 01:47:51;;;;;;;22.40;21.13;;;;;;;;;;5006370;28;20038;-67
2023/10/09 01:50:24;;;;;;;22.33;21.13;;;;;;;;;;5005641;28;20515;-67
2023/10/09 01:52:53;;;;;;;21.08;19.67;;;;;;;;;;5006932;28;20164;-68
2023/10/09 01:55:39;;;;;;;20.40;19.23;;;;;;;;;;4989879;28;20148;-68
2023/10/09 01:58:06;;;;;;;20.77;19.67;;;;;;;;;;5004538;28;20964;-67
2023/10/09 02:00:35;;;;;;;21.75;20.55;;;;;;;;;;5006454;28;20510;-67
2023/10/09 02:03:05;;;;;;;20.67;19.55;;;;;;;;;;5004950;28;20065;-67
2023/10/09 02:05:33;;;;;;;20.50;19.38;;;;;;;;;;5007308;28;20046;-67
2023/10/09 02:07:59;;;;;;;21.50;20.15;;;;;;;;;;4985066;28;20074;-67
2023/10/09 02:12:54;;;;;;;20.48;19.38;;;;;;;;;;5004679;28;20036;-67
2023/10/09 02:15:40;;;;;;;21.15;19.95;;;;;;;;;;5004264;28;20052;-68
2023/10/09 02:18:16;;;;;;;19.67;18.58;;;;;;;;;;5004332;28;20137;-67
2023/10/09 02:20:55;;;;;;;19.67;18.60;;;;;;;;;;5004538;28;20038;-67
2023/10/09 02:23:25;;;;;;;19.30;18.20;;;;;;;;;;5004055;28;20037;-67
2023/10/09 02:25:53;;;;;;;21.65;20.45;;;;;;;;;;5003351;28;20022;-68
2023/10/09 02:28:18;;;;;;;21.58;20.27;;;;;;;;;;5006753;28;20030;-67
2023/10/09 02:30:47;;;;;;;20.98;19.77;;;;;;;;;;5001238;28;20056;-67
2023/10/09 02:33:27;;;;;;;20.52;19.42;;;;;;;;;;5005021;28;20026;-67
2023/10/09 02:35:59;;;;;;;21.20;20.05;;;;;;;;;;5004205;28;20041;-68
2023/10/09 02:38:26;;;;;;;21.42;20.23;;;;;;;;;;5004987;28;20041;-67
2023/10/09 02:43:34;;;;;;;20.30;19.20;;;;;;;;;;4989668;28;20041;-67
2023/10/09 02:46:12;;;;;;;20.58;19.48;;;;;;;;;;5004659;28;20042;-67
2023/10/09 02:48:42;;;;;;;20.23;19.13;;;;;;;;;;5004030;28;20069;-67
2023/10/09 02:51:14;;;;;;;21.13;19.92;;;;;;;;;;5003765;28;20038;-67
2023/10/09 02:53:40;;;;;;;22.15;20.95;;;;;;;;;;5005263;28;20036;-66
2023/10/09 02:56:12;;;;;;;20.35;19.20;;;;;;;;;;4988596;28;20099;-67
2023/10/09 02:58:42;;;;;;;20.40;19.25;;;;;;;;;;5003928;28;20091;-67
2023/10/09 03:01:13;;;;;;;20.80;19.70;;;;;;;;;;5004936;28;20120;-67
2023/10/09 03:03:48;;;;;;;19.58;18.48;;;;;;;;;;5004263;28;20486;-67
2023/10/09 03:06:24;;;;;;;19.50;18.40;;;;;;;;;;5004006;28;20069;-67
2023/10/09 03:08:50;;;;;;;22.25;20.95;;;;;;;;;;5003008;28;20042;-66
2023/10/09 03:11:16;;;;;;;20.63;19.52;;;;;;;;;;5005161;28;20069;-66
2023/10/09 03:13:45;;;;;;;20.00;18.90;;;;;;;;;;5004763;28;20489;-66
2023/10/09 03:16:15;;;;;;;24.25;22.88;;;;;;;;;;5004359;28;20041;-66
2023/10/09 03:18:41;;;;;;;23.33;21.92;;;;;;;;;;5005601;28;20740;-66
2023/10/09 03:21:08;;;;;;;25.63;24.23;;;;;;;;;;5003374;28;20125;-67
2023/10/09 03:23:34;;;;;;;26.10;24.70;;;;;;;;;;5005002;28;20040;-66
2023/10/09 03:25:59;;;;;;;25.50;24.13;;;;;;;;;;4986573;28;20033;-66
2023/10/09 03:28:24;;;;;;;26.27;24.88;;;;;;;;;;5002583;28;20435;-67
2023/10/09 03:30:50;;;;;;;26.75;25.25;;;;;;;;;;5001922;28;20561;-66
2023/10/09 03:33:17;;;;;;;24.90;23.55;;;;;;;;;;5006469;28;20038;-66
2023/10/09 03:35:42;;;;;;;25.27;23.90;;;;;;;;;;5003676;28;20074;-67
2023/10/09 03:38:18;;;;;;;26.20;24.70;;;;;;;;;;5004976;28;20049;-67
2023/10/09 03:40:49;;;;;;;25.85;24.45;;;;;;;;;;5003631;28;20042;-68
2023/10/09 03:43:16;;;;;;;28.23;26.73;;;;;;;;;;5002497;28;20040;-68
2023/10/09 03:45:52;;;;;;;31.92;29.45;;;;;;;;;;5003248;28;20030;-67
2023/10/09 03:48:31;;;;;;;29.17;27.63;;;;;;;;;;5002045;28;20048;-68
2023/10/09 03:51:11;;;;;;;29.83;28.00;;;;;;;;;;5001997;28;20037;-66
2023/10/09 03:53:37;;;;;;;29.23;27.70;;;;;;;;;;5004102;28;20027;-66
2023/10/09 03:56:11;;;;;;;29.15;27.15;;;;;;;;;;5002576;28;20045;-66
2023/10/09 03:58:42;;;;;;;27.35;25.88;;;;;;;;;;5001078;28;20096;-67
2023/10/09 04:01:14;;;;;;;26.40;25.00;;;;;;;;;;4985940;28;20044;-67
2023/10/09 04:03:40;;;;;;;26.50;25.00;;;;;;;;;;5002038;28;20034;-67
2023/10/09 04:06:08;;;;;;;29.85;28.27;;;;;;;;;;5002179;28;20541;-66
2023/10/09 04:08:35;;;;;;;29.17;27.63;;;;;;;;;;4986468;28;20463;-67
2023/10/09 04:11:04;;;;;;;32.00;30.30;;;;;;;;;;4997449;28;20065;-66
2023/10/09 04:13:34;;;;;;;33.78;32.00;;;;;;;;;;5001718;28;20638;-66
2023/10/09 04:17:03;;;;;;;34.13;32.35;;;;;;;;;;5000376;28;20610;-67
2023/10/09 04:18:49;;;;;;;35.83;33.95;;;;;;;;;;4997069;28;20093;-66
2023/10/09 04:21:33;;;;;;;36.83;34.42;;;;;;;;;;5001144;28;20022;-67
2023/10/09 04:26:44;;;;;;;33.50;31.30;;;;;;;;;;4998918;28;20030;-67
2023/10/09 04:29:10;;;;;;;32.85;31.05;;;;;;;;;;5000714;28;20030;-66
2023/10/09 04:31:37;;;;;;;33.42;31.65;;;;;;;;;;5001428;28;20029;-66
2023/10/09 04:36:51;;;;;;;32.28;30.50;;;;;;;;;;5001617;28;20029;-66
2023/10/09 04:39:35;;;;;;;32.25;30.35;;;;;;;;;;4999811;28;20042;-66
2023/10/09 04:42:26;;;;;;;29.25;27.70;;;;;;;;;;4999564;28;20045;-67
2023/10/09 04:47:37;;;;;;;31.27;29.58;;;;;;;;;;5005323;28;20463;-68
2023/10/09 05:00:35;;;;;;;32.92;31.13;;;;;;;;;;4999774;28;20044;-66
2023/10/09 05:08:28;;;;;;;32.30;30.38;;;;;;;;;;5001192;28;20034;-66
2023/10/09 05:16:25;;;;;;;32.60;30.88;;;;;;;;;;5002077;28;20037;-66
2023/10/09 05:19:05;;;;;;;33.22;31.42;;;;;;;;;;5003250;28;20048;-67
2023/10/09 05:34:33;;;;;;;32.67;30.88;;;;;;;;;;5000945;28;20036;-67
2023/10/09 05:37:24;;;;;;;34.35;32.50;;;;;;;;;;5000749;28;20045;-66
2023/10/09 05:47:58;;;;;;;28.60;26.80;;;;;;;;;;5002928;28;20038;-66
2023/10/09 05:53:04;;;;;;;28.65;26.75;;;;;;;;;;5002982;28;20061;-66
2023/10/09 06:03:49;;;;;;;24.60;23.20;;;;;;;;;;5004012;28;20403;-66
2023/10/09 06:06:32;;;;;;;24.10;22.73;;;;;;;;;;5008504;28;21026;-69
2023/10/09 06:14:24;;;;;;;22.33;20.92;;;;;;;;;;5004759;28;20098;-68
2023/10/09 06:19:45;;;;;;;22.88;21.38;;;;;;;;;;5005974;28;20060;-68
2023/10/09 06:25:09;;;;;;;21.88;20.00;;;;;;;;;;4952360;28;20051;-66
2023/10/09 06:32:38;;;;;;;21.85;20.55;;;;;;;;;;5005616;28;20038;-67
2023/10/09 06:35:16;;;;;;;22.38;20.70;;;;;;;;;;5004395;28;20494;-66
2023/10/09 06:51:12;;;;;;;22.85;21.55;;;;;;;;;;4985640;28;20049;-68
2023/10/09 06:59:04;;;;;;;24.10;22.65;;;;;;;;;;5002671;28;20066;-68
2023/10/09 07:04:18;;;;;;;23.88;22.55;;;;;;;;;;5004548;28;20029;-67
2023/10/09 07:06:56;;;;;;;25.55;24.13;;;;;;;;;;5003396;28;20439;-67
2023/10/09 07:09:22;;;;;;;24.90;23.45;;;;;;;;;;5002502;28;20532;-68
2023/10/09 07:17:52;;;;;;;25.38;24.02;;;;;;;;;;5004916;28;20148;-67
2023/10/09 07:24:58;;;;;;;27.35;25.75;;;;;;;;;;5000918;28;20103;-68
2023/10/09 07:27:43;;;;;;;26.63;25.13;;;;;;;;;;4987230;28;20034;-68
2023/10/09 07:33:16;;;;;;;25.35;23.95;;;;;;;;;;5002641;28;20040;-68
2023/10/09 07:38:23;;;;;;;28.15;26.63;;;;;;;;;;5001709;28;20048;-67
2023/10/09 07:40:59;;;;;;;;;;;;;;;;;;5004302;28;20069;-67
2023/10/09 07:43:45;;;;;;;23.90;22.58;;;;;;;;;;5002864;28;19925;-67
2023/10/09 07:46:32;;;;;;;27.85;26.15;;;;;;;;;;5003119;28;20038;-67
2023/10/09 07:49:00;;;;;;;28.77;27.10;;;;;;;;;;5001001;28;20038;-67
2023/10/09 07:51:32;;;;;;;30.38;28.70;;;;;;;;;;5000997;28;20101;-67
2023/10/09 07:54:07;;;;;;;29.40;27.50;;;;;;;;;;5001161;28;20100;-67
2023/10/09 07:56:38;;;;;;;25.65;24.13;;;;;;;;;;4987987;28;20359;-67
2023/10/09 07:59:10;;;;;;;26.45;24.85;;;;;;;;;;5004256;28;20411;-69
2023/10/09 08:01:58;;;;;;;25.58;24.10;;;;;;;;;;4986620;28;20046;-68
2023/10/09 08:04:37;;;;;;;30.75;23.77;;;;;;;;;;5003414;28;20033;-67
2023/10/09 08:07:08;;;;;;;25.00;23.50;;;;;;;;;;5002267;28;20041;-68
2023/10/09 08:10:43;;;;;;;;;;;;;;;;;;5004083;28;20107;-68
2023/10/09 08:12:57;;;;;;;21.33;19.50;;;;;;;;;;5002474;28;20019;-68
2023/10/09 08:15:34;;;;;;;21.67;20.48;;;;;;;;;;5000250;28;20065;-67
2023/10/09 08:18:18;;;;;;;26.05;24.35;;;;;;;;;;5003835;28;20042;-68
2023/10/09 08:23:33;;;;;;;20.33;19.17;;;;;;;;;;5002994;28;20034;-68
2023/10/09 08:26:15;;;;;;;22.15;20.85;;;;;;;;;;4999532;28;20116;-69
2023/10/09 08:28:45;;;;;;;18.90;17.80;;;;;;;;;;5002685;28;20444;-67
2023/10/09 08:33:58;;;;;;;20.23;19.08;;;;;;;;;;5003148;28;20045;-68
2023/10/09 08:36:36;;;;;;;21.27;20.00;;;;;;;;;;5003180;28;20120;-68
2023/10/09 08:39:25;;;;;;;21.08;19.67;;;;;;;;;;4982695;28;20088;-67
2023/10/09 08:41:51;;;;;;;21.75;20.00;;;;;;;;;;4984573;28;20085;-68
2023/10/09 08:44:22;;;;;;;19.02;17.92;;;;;;;;;;4999331;28;20084;-68
2023/10/09 08:46:50;;;;;;;19.42;18.33;;;;;;;;;;5002329;28;20029;-68
2023/10/09 08:49:16;;;;;;;17.60;16.60;;;;;;;;;;5000943;28;20383;-66
2023/10/09 08:51:42;;;;;;;22.50;21.10;;;;;;;;;;4970028;28;20030;-67
2023/10/09 08:54:11;;;;;;;20.00;18.83;;;;;;;;;;5000608;28;20065;-67
2023/10/09 08:56:39;;;;;;;22.35;20.95;;;;;;;;;;5002524;28;20045;-68
2023/10/09 08:59:05;;;;;;;20.63;19.33;;;;;;;;;;4999631;28;20135;-68
2023/10/09 09:01:32;;;;;;;20.00;18.88;;;;;;;;;;5003865;28;20030;-67
2023/10/09 09:03:58;;;;;;;21.15;19.85;;;;;;;;;;5003160;28;20057;-66
2023/10/09 09:06:23;;;;;;;22.55;20.90;;;;;;;;;;5003308;28;20029;-68
2023/10/09 09:08:59;;;;;;;21.55;20.35;;;;;;;;;;5005150;28;20029;-68
2023/10/09 09:11:25;;;;;;;20.30;19.10;;;;;;;;;;4999698;28;20081;-68
2023/10/09 09:13:53;;;;;;;21.20;19.90;;;;;;;;;;5000943;28;20069;-67
2023/10/09 09:16:29;;;;;;;22.00;20.75;;;;;;;;;;4999758;28;20050;-67
2023/10/09 09:19:17;;;;;;;21.88;20.48;;;;;;;;;;5000881;28;20038;-68
2023/10/09 09:21:59;;;;;;;19.30;18.02;;;;;;;;;;5000401;28;20045;-68
2023/10/09 09:27:09;;;;;;;20.27;19.10;;;;;;;;;;5000534;28;20038;-67
2023/10/09 09:29:37;;;;;;;20.20;18.90;;;;;;;;;;5002962;28;20030;-67
2023/10/09 09:32:18;;;;;;;19.45;18.30;;;;;;;;;;5005259;28;20038;-67
2023/10/09 09:34:54;;;;;;;19.05;17.95;;;;;;;;;;5001344;28;20371;-67
2023/10/09 09:37:50;;;;;;;21.98;20.67;;;;;;;;;;4990347;28;20487;-67
2023/10/09 09:40:28;;;;;;;21.27;20.08;;;;;;;;;;5004425;28;20048;-67
2023/10/09 09:43:06;;;;;;;21.85;20.55;;;;;;;;;;5006500;28;20041;-68
2023/10/09 09:45:35;;;;;;;20.52;19.42;;;;;;;;;;5003812;28;20052;-67
2023/10/09 09:48:10;;;;;;;23.92;22.42;;;;;;;;;;5005249;28;20360;-67
2023/10/09 09:50:43;;;;;;;22.80;20.98;;;;;;;;;;5007241;28;20033;-68
2023/10/09 09:53:18;;;;;;;32.17;23.45;;;;;;;;;;4991811;28;20044;-65
2023/10/09 09:55:57;;;;;;;23.73;22.33;;;;;;;;;;5007265;28;20033;-66
2023/10/09 09:58:26;;;;;;;25.88;24.33;;;;;;;;;;5006888;28;20030;-69
2023/10/09 10:00:57;;;;;;;23.70;22.40;;;;;;;;;;5006307;28;20085;-68
2023/10/09 10:03:29;;;;;;;26.77;24.63;;;;;;;;;;5005273;28;20030;-67
2023/10/09 10:05:56;;;;;;;24.48;22.90;;;;;;;;;;5005076;28;20558;-67
2023/10/09 10:08:31;;;;;;;25.58;23.48;;;;;;;;;;5001180;28;20026;-67
2023/10/09 10:11:04;;;;;;;27.40;25.35;;;;;;;;;;5005995;28;20044;-67
2023/10/09 10:13:59;;;;;;;23.33;22.02;;;;;;;;;;5004839;28;20034;-67
2023/10/09 10:16:25;;;;;;;26.13;24.45;;;;;;;;;;4999135;28;20081;-68
2023/10/09 10:19:06;;;;;;;25.20;23.77;;;;;;;;;;5003139;28;20427;-68
2023/10/09 10:21:48;;;;;;;28.88;27.17;;;;;;;;;;5005616;28;20475;-68
2023/10/09 10:24:28;;;;;;;24.40;23.08;;;;;;;;;;5004971;28;20096;-67
2023/10/09 10:27:18;;;;;;;25.13;23.52;;;;;;;;;;5003667;28;20056;-67
2023/10/09 10:29:46;;;;;;;26.58;24.92;;;;;;;;;;5004399;28;20061;-67
2023/10/09 10:32:12;;;;;;;22.98;21.58;;;;;;;;;;5003316;28;20557;-67
2023/10/09 10:34:47;;;;;;;24.50;23.00;;;;;;;;;;4999994;28;20049;-67
2023/10/09 10:37:13;;;;;;;24.05;22.50;;;;;;;;;;4984629;28;20609;-68
2023/10/09 10:40:13;;;;;;;23.42;22.10;;;;;;;;;;5005242;28;20526;-67
2023/10/09 10:42:57;;;;;;;22.95;21.45;;;;;;;;;;5003003;28;20026;-68
2023/10/09 10:45:34;;;;;;;24.33;22.77;;;;;;;;;;4988146;28;20030;-68
2023/10/09 10:48:06;;;;;;;22.55;21.02;;;;;;;;;;5004755;28;20380;-67
2023/10/09 10:53:15;;;;;;;19.83;18.48;;;;;;;;;;5006069;28;20474;-68
2023/10/09 10:55:57;;;;;;;20.92;19.38;;;;;;;;;;4986362;28;20117;-68
2023/10/09 10:58:35;;;;;;;18.58;17.52;;;;;;;;;;4987554;28;20052;-67
2023/10/09 11:01:11;;;;;;;18.60;17.58;;;;;;;;;;5001856;28;20049;-67
2023/10/09 11:03:56;;;;;;;19.63;18.35;;;;;;;;;;5001886;28;20042;-67
2023/10/09 11:06:38;;;;;;;24.30;19.73;;;;;;;;;;5005081;28;20042;-68
2023/10/09 11:09:09;;;;;;;22.35;20.77;;;;;;;;;;5005514;28;20030;-67
2023/10/09 11:11:46;;;;;;;21.48;20.25;;;;;;;;;;4999266;28;20034;-68
2023/10/09 11:14:17;;;;;;;24.20;22.73;;;;;;;;;;5002014;28;20321;-67
2023/10/09 11:16:47;;;;;;;21.77;20.55;;;;;;;;;;5006442;28;20029;-66
2023/10/09 11:19:28;;;;;;;25.70;24.27;;;;;;;;;;5003308;28;20408;-67
2023/10/09 11:21:59;;;;;;;25.83;24.13;;;;;;;;;;5002226;28;20049;-67
2023/10/09 11:24:27;;;;;;;24.75;23.20;;;;;;;;;;5004229;28;20080;-66
2023/10/09 11:26:55;;;;;;;23.83;22.23;;;;;;;;;;5004072;28;20034;-67
2023/10/09 11:32:14;;;;;;;23.73;22.00;;;;;;;;;;5000593;28;20030;-66
2023/10/09 11:34:45;;;;;;;24.55;22.27;;;;;;;;;;5003544;28;20122;-67
2023/10/09 11:39:55;;;;;;;22.55;20.58;;;;;;;;;;5003367;28;20502;-66
2023/10/09 11:45:24;;;;;;;24.83;23.35;;;;;;;;;;5004715;28;20041;-67
2023/10/09 11:47:59;;;;;;;31.50;29.75;;;;;;;;;;4999119;28;20129;-66
2023/10/09 11:55:53;;;;;;;34.40;32.45;;;;;;;;;;5002290;28;20467;-67
2023/10/09 11:58:22;;;;;;;31.27;29.60;;;;;;;;;;4987385;28;20037;-67
2023/10/09 12:00:51;;;;;;;36.30;34.40;;;;;;;;;;4999800;28;20590;-67
2023/10/09 12:03:17;;;;;;;37.65;35.33;;;;;;;;;;4982244;28;20117;-67
2023/10/09 12:05:44;;;;;;;41.17;38.95;;;;;;;;;;5003215;28;20040;-68
2023/10/09 12:08:10;;;;;;;39.05;37.03;;;;;;;;;;4982900;28;20745;-68
2023/10/09 12:10:38;;;;;;;37.47;35.40;;;;;;;;;;4995851;28;20037;-67
2023/10/09 12:13:05;;;;;;;42.83;39.80;;;;;;;;;;4981361;28;20088;-68
2023/10/09 12:15:38;;;;;;;29.17;27.58;;;;;;;;;;5002375;28;20118;-70
2023/10/09 12:18:14;;;;;;;25.17;23.30;;;;;;;;;;4982789;28;20632;-67
2023/10/09 12:20:47;;;;;;;23.17;21.77;;;;;;;;;;4981950;28;20088;-68
2023/10/09 12:23:14;;;;;;;24.13;22.80;;;;;;;;;;4998953;28;20065;-69
2023/10/09 12:25:40;;;;;;;23.10;21.80;;;;;;;;;;4999209;28;20091;-69
2023/10/09 12:28:06;;;;;;;25.27;23.92;;;;;;;;;;5003699;28;20037;-67
2023/10/09 12:30:38;;;;;;;25.40;23.92;;;;;;;;;;4986003;28;20045;-69
2023/10/09 12:33:07;;;;;;;30.20;28.65;;;;;;;;;;4998374;28;20376;-67
2023/10/09 12:35:39;;;;;;;29.33;27.73;;;;;;;;;;5001843;28;20111;-67
2023/10/09 12:38:09;;;;;;;29.95;28.17;;;;;;;;;;5000693;28;20044;-66
2023/10/09 12:40:35;;;;;;;;;;;;;;;;;;4984579;28;20156;-67
2023/10/09 12:43:01;;;;;;;23.55;22.25;;;;;;;;;;5002236;28;19933;-67
2023/10/09 12:45:27;;;;;;;22.75;21.35;;;;;;;;;;4996894;28;20034;-67
2023/10/09 12:47:58;;;;;;;22.10;20.85;;;;;;;;;;4986390;28;20041;-67
2023/10/09 12:50:27;;;;;;;22.77;21.50;;;;;;;;;;5000095;28;20467;-69
2023/10/09 12:52:56;;;;;;;22.75;21.45;;;;;;;;;;4999568;28;20030;-67
2023/10/09 12:55:31;;;;;;;22.83;21.42;;;;;;;;;;5001241;28;20348;-66
2023/10/09 12:58:00;;;;;;;24.02;22.73;;;;;;;;;;4996398;28;20048;-67
2023/10/09 13:00:26;;;;;;;24.92;23.52;;;;;;;;;;5001184;28;20053;-66
2023/10/09 13:02:52;;;;;;;24.60;23.20;;;;;;;;;;5000848;28;20053;-67
2023/10/09 13:05:26;;;;;;;21.83;20.52;;;;;;;;;;4999656;28;20038;-66
2023/10/09 13:07:53;;;;;;;37.30;35.38;;;;;;;;;;5005359;28;20053;-67
2023/10/09 13:10:19;;;;;;;43.30;41.05;;;;;;;;;;5004194;28;20104;-68
2023/10/09 13:12:45;;;;;;;48.45;45.90;;;;;;;;;;5005190;28;20092;-67
2023/10/09 13:15:11;;;;;;;28.60;27.05;;;;;;;;;;5007379;28;20391;-67
2023/10/09 13:17:37;;;;;;;55.83;52.13;;;;;;;;;;4999858;28;20068;-68
2023/10/09 13:20:12;;;;;;;29.60;27.90;;;;;;;;;;5006259;28;20049;-67
2023/10/09 13:22:38;;;;;;;33.35;31.42;;;;;;;;;;4986918;28;20066;-67
2023/10/09 13:25:05;;;;;;;31.67;29.92;;;;;;;;;;5004977;28;20033;-67
2023/10/09 13:27:34;;;;;;;56.30;53.30;;;;;;;;;;5005089;28;20033;-67
2023/10/09 13:30:07;;;;;;;71.43;67.85;;;;;;;;;;4999102;28;20038;-67
2023/10/09 13:32:35;;;;;;;46.17;43.83;;;;;;;;;;5004291;28;20061;-67
2023/10/09 13:35:05;;;;;;;52.45;49.78;;;;;;;;;;5005940;28;20034;-67
2023/10/09 13:37:36;;;;;;;56.85;53.80;;;;;;;;;;5002774;28;20088;-67
2023/10/09 13:40:10;;;;;;;75.55;71.75;;;;;;;;;;5002084;28;20029;-67
2023/10/09 13:42:35;;;;;;;46.53;43.45;;;;;;;;;;5005283;28;20045;-67
2023/10/09 13:45:15;;;;;;;75.25;70.32;;;;;;;;;;4989572;28;20042;-67
2023/10/09 13:47:44;;;;;;;77.20;73.38;;;;;;;;;;5000992;28;20522;-67
2023/10/09 13:50:10;;;;;;;60.30;57.25;;;;;;;;;;5003769;28;20045;-67
2023/10/09 13:52:39;;;;;;;43.10;40.75;;;;;;;;;;5006117;28;20364;-67
2023/10/09 13:55:16;;;;;;;29.73;28.13;;;;;;;;;;5002070;28;20053;-65
2023/10/09 13:57:45;;;;;;;55.65;52.85;;;;;;;;;;4973633;28;20412;-67
2023/10/09 14:00:33;;;;;;;77.00;72.93;;;;;;;;;;5003909;28;20034;-65
2023/10/09 14:03:01;;;;;;;83.78;79.63;;;;;;;;;;4986649;28;20034;-65
2023/10/09 14:05:29;;;;;;;47.60;44.90;;;;;;;;;;5001181;28;20648;-65
2023/10/09 14:07:59;;;;;;;88.55;84.05;;;;;;;;;;4985912;28;20107;-64
2023/10/09 14:10:29;;;;;;;;;;;;;;;;;;5005014;28;20087;-67
2023/10/09 14:12:56;;;;;;;59.95;56.78;;;;;;;;;;5003719;28;19925;-67
2023/10/09 14:15:23;;;;;;;100.97;96.00;;;;;;;;;;5004688;28;20033;-68
2023/10/09 14:17:55;;;;;;;81.82;77.72;;;;;;;;;;5004783;28;20053;-68
2023/10/09 14:20:31;;;;;;;104.50;99.32;;;;;;;;;;5006945;28;20117;-65
2023/10/09 14:23:08;;;;;;;99.65;94.60;;;;;;;;;;4983345;28;20094;-66
2023/10/09 14:25:39;;;;;;;95.38;90.68;;;;;;;;;;5006366;28;20042;-67
2023/10/09 14:28:08;;;;;;;;;;;;;;;;;;5003067;28;20033;-68
2023/10/09 14:30:41;;;;;;;96.50;91.63;;;;;;;;;;4990294;28;19917;-65
2023/10/09 14:33:12;;;;;;;86.50;82.07;;;;;;;;;;5003413;28;20037;-68
2023/10/09 14:35:39;;;;;;;;;;;;;;;;;;5001641;28;20543;-67
2023/10/09 14:38:11;;;;;;;80.25;76.20;;;;;;;;;;5004321;28;19964;-68
2023/10/09 14:40:41;;;;;;;80.90;76.88;;;;;;;;;;5002466;28;20533;-69
2023/10/09 14:43:08;;;;;;;45.20;41.42;;;;;;;;;;5002435;28;20153;-70
2023/10/09 14:45:36;;;;;;;91.65;86.85;;;;;;;;;;5006129;28;20029;-66
2023/10/09 14:48:02;;;;;;;106.47;101.25;;;;;;;;;;5004537;28;20040;-66
2023/10/09 14:50:28;;;;;;;114.43;108.75;;;;;;;;;;5002145;28;20038;-67
2023/10/09 14:52:53;;;;;;;111.20;105.63;;;;;;;;;;5003660;28;20088;-66
2023/10/09 14:55:20;;;;;;;121.90;115.80;;;;;;;;;;5002798;28;20171;-67
2023/10/09 14:57:52;;;;;;;96.13;91.35;;;;;;;;;;4988548;28;20034;-67
2023/10/09 15:00:22;;;;;;;100.80;95.40;;;;;;;;;;5005323;28;20041;-70
2023/10/09 15:02:50;;;;;;;99.32;94.45;;;;;;;;;;5006370;28;20680;-66
2023/10/09 15:05:16;;;;;;;64.45;61.15;;;;;;;;;;4988056;28;20038;-66
2023/10/09 15:07:41;;;;;;;27.15;25.67;;;;;;;;;;4999598;28;20415;-67
2023/10/09 15:10:09;;;;;;;38.17;36.13;;;;;;;;;;5000637;28;20030;-67
2023/10/09 15:12:39;;;;;;;39.42;37.33;;;;;;;;;;5002316;28;20029;-70
2023/10/09 15:15:11;;;;;;;;;;;;;;;;;;5000045;28;20045;-70
2023/10/09 15:17:37;;;;;;;43.50;41.20;;;;;;;;;;5002044;28;19924;-66
2023/10/09 15:20:02;;;;;;;36.70;33.90;;;;;;;;;;5001233;28;20026;-68
2023/10/09 15:22:35;;;;;;;22.02;20.73;;;;;;;;;;5000858;28;20363;-66
2023/10/09 15:25:00;;;;;;;22.73;21.42;;;;;;;;;;5003345;28;20433;-67
2023/10/09 15:27:26;;;;;;;22.75;21.33;;;;;;;;;;5004638;28;20065;-72
2023/10/09 15:29:51;;;;;;;25.38;23.83;;;;;;;;;;5003420;28;20042;-69
2023/10/09 15:32:22;;;;;;;23.23;21.92;;;;;;;;;;5003949;28;20038;-70
2023/10/09 15:34:47;;;;;;;26.02;24.48;;;;;;;;;;4990214;28;20138;-70
2023/10/09 15:37:13;;;;;;;39.38;37.30;;;;;;;;;;4998998;28;20041;-70
2023/10/09 15:39:39;;;;;;;59.60;56.53;;;;;;;;;;5002298;28;20376;-70
2023/10/09 15:42:06;;;;;;;71.38;67.70;;;;;;;;;;4971351;28;20367;-69
2023/10/09 15:44:36;;;;;;;44.60;42.30;;;;;;;;;;5001372;28;20551;-70
2023/10/09 15:47:08;;;;;;;75.10;71.15;;;;;;;;;;5000345;28;20041;-70
2023/10/09 15:49:37;;;;;;;64.13;60.78;;;;;;;;;;5003196;28;20041;-70
2023/10/09 15:52:02;;;;;;;82.45;78.32;;;;;;;;;;4970517;28;20117;-67
2023/10/09 15:54:28;;;;;;;71.18;67.55;;;;;;;;;;4990563;28;20134;-66
2023/10/09 15:56:55;;;;;;;59.15;56.08;;;;;;;;;;5004072;28;20034;-67
2023/10/09 15:59:24;;;;;;;94.28;89.50;;;;;;;;;;4988513;28;20029;-67
2023/10/09 16:01:51;;;;;;;84.60;80.25;;;;;;;;;;5001005;28;20437;-67
2023/10/09 16:04:17;;;;;;;75.13;71.30;;;;;;;;;;5002163;28;20045;-67
2023/10/09 16:06:42;;;;;;;129.98;123.50;;;;;;;;;;5003219;28;20033;-68
2023/10/09 16:09:11;;;;;;;169.05;160.80;;;;;;;;;;4983592;28;20059;-67
2023/10/09 16:11:39;;;;;;;136.95;130.20;;;;;;;;;;4998455;28;20072;-67
2023/10/09 16:14:07;;;;;;;124.22;118.07;;;;;;;;;;5001883;28;20414;-70
2023/10/09 16:16:34;;;;;;;132.05;125.25;;;;;;;;;;5000262;28;20041;-67
2023/10/09 16:19:01;;;;;;;130.48;123.80;;;;;;;;;;4999330;28;20033;-67
2023/10/09 16:21:27;;;;;;;110.15;104.60;;;;;;;;;;5001952;28;20033;-68
2023/10/09 16:23:53;;;;;;;120.85;114.90;;;;;;;;;;5002235;28;20367;-67
2023/10/09 16:26:24;;;;;;;111.68;106.07;;;;;;;;;;5002339;28;20073;-67
2023/10/09 16:28:51;;;;;;;107.22;101.80;;;;;;;;;;4986097;28;20030;-69
2023/10/09 16:31:18;;;;;;;103.10;97.45;;;;;;;;;;5004029;28;20033;-70
2023/10/09 16:33:47;;;;;;;88.80;84.30;;;;;;;;;;5002262;28;20651;-67
2023/10/09 16:36:16;;;;;;;101.78;96.55;;;;;;;;;;5001367;28;20546;-67
2023/10/09 16:38:43;;;;;;;87.18;82.78;;;;;;;;;;5000493;28;20034;-67
2023/10/09 16:41:09;;;;;;;85.43;81.10;;;;;;;;;;5001175;28;20508;-69
2023/10/09 16:43:42;;;;;;;110.88;105.32;;;;;;;;;;5001655;28;20038;-66
2023/10/09 16:46:13;;;;;;;117.28;111.40;;;;;;;;;;5000115;28;20060;-69
2023/10/09 16:48:39;;;;;;;129.18;122.65;;;;;;;;;;5003526;28;20030;-66
2023/10/09 16:51:09;;;;;;;134.98;128.20;;;;;;;;;;5001278;28;20084;-66
2023/10/09 16:53:38;;;;;;;168.38;159.95;;;;;;;;;;5002332;28;20593;-67
2023/10/09 16:56:09;;;;;;;186.55;177.10;;;;;;;;;;4982013;28;20048;-66
2023/10/09 16:58:43;;;;;;;191.40;181.82;;;;;;;;;;5001215;28;20042;-70
2023/10/09 17:01:11;;;;;;;192.68;183.05;;;;;;;;;;5001938;28;20048;-68
2023/10/09 17:03:42;;;;;;;198.35;188.48;;;;;;;;;;5000901;28;20117;-70
2023/10/09 17:06:11;;;;;;;201.35;191.18;;;;;;;;;;5000474;28;21146;-69
2023/10/09 17:08:42;;;;;;;195.43;185.65;;;;;;;;;;5001505;28;20041;-69
2023/10/09 17:11:12;;;;;;;195.52;185.65;;;;;;;;;;4985262;28;20030;-68
2023/10/09 17:13:46;;;;;;;191.77;182.25;;;;;;;;;;5002119;28;20038;-67